Current Conditions

Updated: 16-Jan-2018 2:52 PM  
Summary / Temperature Wind Rain






Feels like: 55°F

1-hour difference
1.5°F 1.5°F warmer than last hour.

24-hour difference
6.7°F6.7°F colder than yesterday at this time.

  Today Yesterday
High: 55.4°F
2:50 PM
62.8°F
3:29 PM
Low: 45.9°F
12:40 AM
40.3°F
7:19 AM
Calm E
0.0
Gust:  0.0 mph
0 Beaufort - Calm

Today: 4.6 - 2:05 AM
Month: 11.5 mph - Jan 10
Rain Today: 0.01 in
Current Rate (/hr): 0.000 in
Max Rate (/hr):
Rain Yesterday: 0.01 in
Storm Rain: 0.00 in
This Month: 0.81 in
Season Total: 1.54 in
Last Rain Event: Today
Humidity / Barometer Sun / Moon
Humidity: 90 Decreased 1.0% in the last hour.
Dew Point: 52.5°F Increased 1.2°F in the last hour.
Barometer: 30.224 inHg  
Baro Trend: Steady
Sunrise: 7:06 AM
Sunset: 5:05 PM
Moonrise: 6:42 AM
Moonset: 4:07 PM
Sky Conditions UV Index
Summary: Mist, Overcast
Visibility: 1 ¼ miles
Clouds: Overcast @ 300 ft
KVIS - 2:30 PM PST
Current: 1.0  Low 
Tuesday: 2.2  Low 
Wednesday: 2.3  Low 
Air Quality Fire Danger
 Unhealthy for Sensitive Groups 
Ozone 6 ppb
PM 2.5 47 μg/m3
2:50 PM PST
Current: 0  Low 

Local Alerts Local Forecast
Local NWS Alerts
Today

Partly
Cloudy
High 63
Tonight

Partly
Cloudy
Low 42
Wed

Partly
Cloudy
High 62
Wed night

Partly
Cloudy
Low 42
Thu

Rain
Showers
High 64
Thu night

Chance of
Rain
Low 44
Fri

Rain

High 56

Local Radar Local Satellite Neighborhood Cam Sky Cam
Local Radar Local Satellite Neighborhood Cam Sky Cam


Nearby Personal Stations

Weather Underground PWS KCAEXETE7     Weather Underground PWS KCAEXETE6     Weather Underground PWS KCAEXETE11

Nearby Airport Stations

KVIS - Visalia, California, USA
Distance from station: W 14mi, 23km
Updated: Tue, 16-Jan-2018 2:30pm PST
Mist, Overcast
Mist, Overcast
 Wind from calm
Wind: Calm
Temperature: 52°F , 11°C
Dew Point: 50°F , 10°C
Humidity: 94%
Barometer: 30.22 inHg , 1023.4 hPa
Summary: Mist
Clouds: Overcast
Visibility: 1 1/4 miles , 2 km
Cloud details: Overcast 300 ft
2018/01/16 22:30 KVIS 162230Z AUTO 00000KT 1 1/4SM BR OVC003 11/10 A3022 RMK AO2
KPTV - Porterville, California, USA
Distance from station: SSE 19mi, 31km
Updated: Tue, 16-Jan-2018 1:56pm PST
Mist, Overcast
Mist, Overcast
 Wind from W
Wind: W 3 mph , 6 km/h
Temperature: 52°F , 11°C
Dew Point: 50°F , 10°C
Humidity: 94%
Barometer: 30.23 inHg , 1023.7 hPa
Summary: Mist
Clouds: Overcast
Visibility: 1 1/4 miles , 2 km
Cloud details: Overcast 400 ft
2018/01/16 21:56 KPTV 162156Z AUTO 26003KT 1 1/4SM BR OVC004 11/10 A3023 RMK AO2 SLP252 T01110100

Metar display script from Saratoga-Weather.org



Visitor Map